Time;durP1;ratioP1;P1;durP2;ratioP2;P2;SDS_P1;SDS_P2;PMS_P1;PMS_P2;Temp;Humidity;BMP_temperature;BMP_pressure;BME280_temperature;BME280_humidity;BME280_pressure;Samples;Min_cycle;Max_cycle;Signal;HPM_P1;HPM_P2
2021/05/19 00:02:06;;;;;;;0.82;0.70;;;;;;;11.36;100.00;97495.13;5012424;28;20079;-77
2021/05/19 00:04:32;;;;;;;1.88;1.30;;;;;;;11.39;100.00;97497.22;5012658;28;20037;-76
2021/05/19 00:06:57;;;;;;;3.50;0.70;;;;;;;11.22;100.00;97497.09;5012581;28;20022;-76
2021/05/19 00:09:23;;;;;;;2.25;0.80;;;;;;;11.17;100.00;97489.00;5012359;28;20026;-77
2021/05/19 00:11:48;;;;;;;1.65;0.95;;;;;;;11.15;100.00;97494.00;5012312;28;20026;-76
2021/05/19 00:14:16;;;;;;;4.07;1.13;;;;;;;11.09;100.00;97497.94;5012316;28;20493;-75
2021/05/19 00:16:46;;;;;;;5.03;1.85;;;;;;;11.09;100.00;97503.41;5012356;28;20026;-77
2021/05/19 00:19:11;;;;;;;2.72;1.30;;;;;;;11.13;100.00;97498.94;5012276;28;20115;-75
2021/05/19 00:21:37;;;;;;;3.92;1.63;;;;;;;11.03;100.00;97494.53;5012287;28;20507;-76
2021/05/19 00:24:07;;;;;;;2.15;1.08;;;;;;;11.04;100.00;97498.88;5011918;28;20021;-75
2021/05/19 00:26:33;;;;;;;5.80;1.10;;;;;;;11.14;100.00;97500.59;5012356;28;20030;-75
2021/05/19 00:28:58;;;;;;;1.02;0.82;;;;;;;11.00;100.00;97502.53;5012366;28;20387;-75
2021/05/19 00:31:26;;;;;;;3.20;0.57;;;;;;;11.02;100.00;97500.31;5012524;28;20395;-76
2021/05/19 00:33:52;;;;;;;1.75;0.88;;;;;;;11.04;100.00;97501.63;5011226;28;20032;-75
2021/05/19 00:36:17;;;;;;;0.57;0.57;;;;;;;11.18;100.00;97501.59;5012210;28;20025;-75
2021/05/19 00:38:44;;;;;;;3.80;2.45;;;;;;;11.14;100.00;97506.88;5011740;28;20046;-75
2021/05/19 00:41:12;;;;;;;2.67;0.77;;;;;;;11.14;100.00;97503.31;4994031;28;20030;-76
2021/05/19 00:43:38;;;;;;;3.13;0.77;;;;;;;11.11;100.00;97506.66;4994275;28;20125;-75
2021/05/19 00:46:03;;;;;;;1.02;0.93;;;;;;;11.07;100.00;97502.94;4994197;28;20453;-75
2021/05/19 00:48:29;;;;;;;1.75;1.05;;;;;;;11.02;100.00;97500.31;5011814;28;20022;-76
2021/05/19 00:50:54;;;;;;;2.47;0.90;;;;;;;11.01;100.00;97490.47;5011397;28;20045;-75
2021/05/19 00:53:20;;;;;;;1.50;0.70;;;;;;;10.71;100.00;97490.06;4994034;28;20040;-75
2021/05/19 00:55:45;;;;;;;2.85;1.02;;;;;;;10.70;100.00;97488.44;5011915;28;20371;-76
2021/05/19 00:58:12;;;;;;;2.17;1.30;;;;;;;10.63;100.00;97496.25;5011587;28;20030;-75
2021/05/19 01:00:38;;;;;;;1.52;0.80;;;;;;;10.60;100.00;97496.06;5012061;28;20057;-75
2021/05/19 01:03:04;;;;;;;1.85;1.00;;;;;;;10.61;100.00;97493.03;5011364;28;20521;-75
2021/05/19 01:10:50;;;;;;;1.77;0.93;;;;;;;10.71;100.00;97483.78;5011390;28;20040;-75
2021/05/19 01:13:16;;;;;;;3.88;2.22;;;;;;;10.64;100.00;97484.22;5011633;28;20029;-75
2021/05/19 01:15:42;;;;;;;1.00;0.85;;;;;;;10.62;100.00;97483.69;5011644;28;20109;-76
2021/05/19 01:18:08;;;;;;;3.80;1.30;;;;;;;10.75;100.00;97488.31;5011239;28;20033;-75
2021/05/19 01:20:34;;;;;;;2.03;0.60;;;;;;;10.75;100.00;97490.25;5011383;28;20030;-75
2021/05/19 01:23:01;;;;;;;1.73;1.00;;;;;;;10.85;100.00;97490.03;5011570;28;20029;-75
2021/05/19 01:25:27;;;;;;;3.92;0.90;;;;;;;10.84;100.00;97482.16;4993836;28;20383;-75
2021/05/19 01:27:55;;;;;;;0.77;0.77;;;;;;;10.84;100.00;97471.19;5011027;28;20018;-75
2021/05/19 01:30:22;;;;;;;1.25;0.93;;;;;;;10.95;100.00;97465.16;4994047;28;20379;-75
2021/05/19 01:32:48;;;;;;;2.45;0.90;;;;;;;10.80;100.00;97475.66;5011120;28;20021;-75
2021/05/19 01:35:14;;;;;;;1.80;1.05;;;;;;;10.73;100.00;97476.91;5011082;28;20363;-75
2021/05/19 01:37:40;;;;;;;1.20;0.85;;;;;;;10.73;100.00;97485.09;5011635;28;20036;-76
2021/05/19 01:40:06;;;;;;;2.60;1.33;;;;;;;10.60;100.00;97477.72;5012410;28;20474;-75
2021/05/19 01:42:32;;;;;;;1.67;0.75;;;;;;;10.60;100.00;97483.19;5013089;28;20441;-81
2021/05/19 01:44:57;;;;;;;0.98;0.70;;;;;;;10.65;100.00;97474.88;5009844;28;20030;-75
2021/05/19 01:47:39;;;;;;;4.13;0.90;;;;;;;10.62;100.00;97480.13;4989693;28;20024;-77
2021/05/19 01:50:07;;;;;;;2.28;0.80;;;;;;;10.62;100.00;97478.22;5010773;28;20470;-76
2021/05/19 01:52:33;;;;;;;2.17;0.82;;;;;;;10.63;100.00;97481.78;5011081;28;20037;-76
2021/05/19 01:55:00;;;;;;;2.17;0.55;;;;;;;10.59;100.00;97476.09;5010697;28;20033;-76
2021/05/19 01:57:25;;;;;;;0.73;0.60;;;;;;;10.57;100.00;97483.00;5010801;28;20525;-75
2021/05/19 01:59:51;;;;;;;1.20;1.00;;;;;;;10.58;100.00;97482.72;5010797;28;20050;-76
2021/05/19 02:02:22;;;;;;;0.73;0.65;;;;;;;10.61;100.00;97484.00;5010755;28;20104;-76
2021/05/19 02:04:48;;;;;;;1.17;0.60;;;;;;;10.55;100.00;97486.06;5009920;28;20061;-76
2021/05/19 02:07:13;;;;;;;2.42;0.73;;;;;;;10.45;100.00;97480.81;5009353;28;20054;-76
2021/05/19 02:09:38;;;;;;;0.75;0.68;;;;;;;10.42;100.00;97492.34;5010047;28;20049;-77
2021/05/19 02:12:04;;;;;;;0.90;0.70;;;;;;;10.29;100.00;97471.28;5011087;28;20033;-76
2021/05/19 02:14:30;;;;;;;0.90;0.47;;;;;;;10.37;100.00;97486.19;5010770;28;20028;-76
2021/05/19 02:16:55;;;;;;;2.45;0.95;;;;;;;10.41;100.00;97488.00;5009250;28;20022;-76
2021/05/19 02:19:20;;;;;;;0.93;0.70;;;;;;;10.34;100.00;97484.84;5010128;28;20030;-75
2021/05/19 02:21:49;;;;;;;1.75;0.77;;;;;;;10.37;100.00;97486.97;5010464;28;20402;-75
2021/05/19 02:24:15;;;;;;;4.78;1.10;;;;;;;10.35;100.00;97481.00;4992384;28;20026;-76
2021/05/19 02:26:42;;;;;;;1.23;0.82;;;;;;;10.34;100.00;97473.91;5010386;28;20044;-78
2021/05/19 02:29:08;;;;;;;1.50;0.80;;;;;;;10.30;100.00;97483.88;5010072;28;20024;-76
2021/05/19 02:31:34;;;;;;;0.82;0.80;;;;;;;10.32;100.00;97487.09;5010348;28;20141;-76
2021/05/19 02:33:59;;;;;;;3.25;0.93;;;;;;;10.30;100.00;97489.31;5010363;28;20390;-75
2021/05/19 02:36:25;;;;;;;1.55;0.80;;;;;;;10.12;100.00;97490.19;5010191;28;20125;-76
2021/05/19 02:38:51;;;;;;;1.27;0.75;;;;;;;10.04;100.00;97486.25;5010334;28;20026;-75
2021/05/19 02:41:16;;;;;;;3.45;0.77;;;;;;;10.11;100.00;97488.59;5008967;28;20456;-75
2021/05/19 02:43:42;;;;;;;1.15;0.95;;;;;;;10.02;100.00;97495.88;5010532;28;20123;-75
2021/05/19 02:46:08;;;;;;;4.30;1.10;;;;;;;10.06;100.00;97497.69;5010064;28;20022;-75
2021/05/19 02:48:33;;;;;;;1.10;0.93;;;;;;;10.10;100.00;97497.88;5010282;28;20040;-75
2021/05/19 02:50:59;;;;;;;2.13;0.85;;;;;;;9.97;100.00;97493.22;5010159;28;20045;-78
2021/05/19 02:53:24;;;;;;;1.08;0.70;;;;;;;10.03;100.00;97495.56;5010205;28;20033;-76
2021/05/19 02:55:50;;;;;;;4.15;0.65;;;;;;;9.92;100.00;97493.34;5010771;28;20041;-76
2021/05/19 02:58:15;;;;;;;1.60;0.90;;;;;;;9.99;100.00;97488.28;5013864;28;20482;-75
2021/05/19 03:00:41;;;;;;;1.65;1.08;;;;;;;9.96;100.00;97486.94;5013987;28;20029;-75
2021/05/19 03:03:07;;;;;;;2.20;1.00;;;;;;;10.04;100.00;97490.91;5013605;28;20125;-76
2021/05/19 03:05:32;;;;;;;1.73;0.77;;;;;;;10.01;100.00;97491.50;5013419;28;20034;-74
2021/05/19 03:07:58;;;;;;;0.60;0.50;;;;;;;9.86;100.00;97489.91;4995708;28;20030;-75
2021/05/19 03:10:23;;;;;;;1.08;0.57;;;;;;;9.92;100.00;97487.88;5013630;28;20076;-75
2021/05/19 03:12:51;;;;;;;0.65;0.60;;;;;;;9.88;100.00;97478.66;5013250;28;20032;-75
2021/05/19 03:15:18;;;;;;;1.27;0.88;;;;;;;9.88;100.00;97487.66;4995689;28;20445;-75
2021/05/19 03:17:45;;;;;;;1.70;1.13;;;;;;;9.82;100.00;97480.69;5013153;28;20399;-75
2021/05/19 03:20:11;;;;;;;1.35;1.05;;;;;;;9.83;100.00;97482.31;4995755;28;20041;-76
2021/05/19 03:22:37;;;;;;;0.68;0.40;;;;;;;9.85;100.00;97482.81;5013286;28;20022;-74
2021/05/19 03:25:04;;;;;;;0.35;0.35;;;;;;;9.85;100.00;97482.00;5013231;28;20514;-78
2021/05/19 03:27:29;;;;;;;0.73;0.60;;;;;;;9.84;100.00;97483.09;5012722;28;20038;-76
2021/05/19 03:29:55;;;;;;;0.43;0.43;;;;;;;9.74;100.00;97478.66;5012940;28;20034;-76
2021/05/19 03:32:20;;;;;;;0.55;0.52;;;;;;;9.75;100.00;97468.50;5013513;28;20061;-75
2021/05/19 03:34:45;;;;;;;1.20;0.80;;;;;;;9.81;100.00;97483.69;5012855;28;20061;-75
2021/05/19 03:37:11;;;;;;;0.70;0.50;;;;;;;9.56;100.00;97485.78;5012824;28;20014;-75
2021/05/19 03:39:36;;;;;;;0.60;0.40;;;;;;;9.66;100.00;97484.78;5013021;28;20026;-76
2021/05/19 03:42:02;;;;;;;1.48;0.40;;;;;;;9.52;100.00;97490.22;5012703;28;20026;-76
2021/05/19 03:44:27;;;;;;;0.70;0.45;;;;;;;9.47;100.00;97498.50;4995376;28;20116;-76
2021/05/19 03:46:54;;;;;;;0.40;0.30;;;;;;;9.38;100.00;97499.50;5012883;28;20022;-75
2021/05/19 03:49:19;;;;;;;0.73;0.40;;;;;;;9.35;100.00;97498.19;5012857;28;20010;-76
2021/05/19 03:51:45;;;;;;;0.40;0.32;;;;;;;9.33;100.00;97503.13;4995052;28;20030;-76
2021/05/19 03:54:11;;;;;;;0.10;0.10;;;;;;;9.38;100.00;97505.75;5012407;28;20128;-75
2021/05/19 03:56:36;;;;;;;1.02;0.52;;;;;;;9.43;100.00;97522.03;5015265;28;20022;-75
2021/05/19 03:59:03;;;;;;;0.20;0.20;;;;;;;9.44;100.00;97523.69;5014783;28;20080;-76
2021/05/19 04:01:28;;;;;;;0.55;0.35;;;;;;;9.41;100.00;97513.34;5013401;28;20089;-76
2021/05/19 04:03:53;;;;;;;0.30;0.30;;;;;;;9.40;100.00;97519.09;5012816;28;20046;-76
2021/05/19 04:06:22;;;;;;;1.55;0.50;;;;;;;9.51;100.00;97526.03;5012721;28;20125;-76
2021/05/19 04:08:47;;;;;;;0.20;0.20;;;;;;;9.37;100.00;97517.78;5011441;28;20017;-76
2021/05/19 04:11:13;;;;;;;0.52;0.28;;;;;;;9.35;100.00;97533.66;5012416;28;20124;-76
2021/05/19 04:13:38;;;;;;;0.35;0.30;;;;;;;9.31;100.00;97542.72;5012180;28;20034;-77
2021/05/19 04:16:05;;;;;;;0.73;0.30;;;;;;;9.37;100.00;97545.06;5012399;28;20117;-77
2021/05/19 04:18:30;;;;;;;0.50;0.32;;;;;;;9.25;100.00;97544.72;5012396;28;20037;-76
2021/05/19 04:20:56;;;;;;;0.50;0.20;;;;;;;9.25;100.00;97538.44;4994297;28;20025;-75
2021/05/19 04:23:22;;;;;;;2.63;0.63;;;;;;;9.17;100.00;97539.94;5012073;28;20030;-76
2021/05/19 04:25:48;;;;;;;0.10;0.10;;;;;;;9.24;100.00;97543.09;4994628;28;20038;-77
2021/05/19 04:28:14;;;;;;;1.00;0.45;;;;;;;9.18;100.00;97549.75;5011767;28;20482;-77
2021/05/19 04:30:39;;;;;;;0.40;0.32;;;;;;;9.14;100.00;97548.72;5012580;28;20057;-78
2021/05/19 04:33:05;;;;;;;0.32;0.30;;;;;;;9.29;100.00;97553.94;5011780;28;20026;-78
2021/05/19 04:35:32;;;;;;;1.08;0.30;;;;;;;9.35;100.00;97555.50;5012452;28;20389;-77
2021/05/19 04:37:59;;;;;;;0.43;0.32;;;;;;;9.22;100.00;97555.41;5012618;28;20026;-78
2021/05/19 04:40:24;;;;;;;6.38;0.50;;;;;;;9.27;100.00;97556.16;5016731;28;20041;-77
2021/05/19 04:42:50;;;;;;;1.58;0.65;;;;;;;9.28;100.00;97555.03;4994050;28;20479;-80
2021/05/19 04:45:16;;;;;;;0.40;0.30;;;;;;;9.23;100.00;97557.06;5011983;28;20041;-80
2021/05/19 04:47:41;;;;;;;1.92;0.50;;;;;;;9.21;100.00;97554.59;5019707;28;20065;-77
2021/05/19 04:50:08;;;;;;;0.65;0.32;;;;;;;9.10;100.00;97553.97;5021458;28;20040;-76
2021/05/19 04:52:34;;;;;;;2.40;0.45;;;;;;;9.14;100.00;97552.28;5001194;28;20025;-76
2021/05/19 04:55:01;;;;;;;3.42;0.40;;;;;;;8.90;100.00;97553.44;5017060;28;20076;-80
2021/05/19 04:57:27;;;;;;;3.05;1.23;;;;;;;8.92;100.00;97562.97;5002686;28;20022;-80
2021/05/19 04:59:53;;;;;;;9.95;3.92;;;;;;;8.95;100.00;97565.09;5021155;28;20497;-79
2021/05/19 05:02:18;;;;;;;5.60;4.38;;;;;;;9.01;100.00;97560.38;5019632;28;20046;-81
2021/05/19 05:04:44;;;;;;;2.90;2.22;;;;;;;9.20;100.00;97557.66;5019879;28;20041;-85
2021/05/19 05:07:09;;;;;;;1.90;0.88;;;;;;;9.26;100.00;97559.19;5016620;28;20069;-79
2021/05/19 05:09:35;;;;;;;1.92;1.23;;;;;;;9.24;99.04;97570.38;5027485;28;20052;-84
2021/05/19 05:12:01;;;;;;;1.52;1.00;;;;;;;9.21;97.74;97570.19;5021702;28;20022;-79
2021/05/19 05:14:26;;;;;;;2.60;1.40;;;;;;;9.32;99.97;97577.09;5016762;28;20371;-85
2021/05/19 05:16:51;;;;;;;0.98;0.82;;;;;;;9.22;97.87;97571.78;5017195;28;20057;-83
2021/05/19 05:19:18;;;;;;;1.05;0.98;;;;;;;9.16;100.00;97584.72;5022159;28;20430;-82
2021/05/19 05:21:43;;;;;;;0.77;0.60;;;;;;;9.17;100.00;97580.06;5011210;28;20033;-86
2021/05/19 05:24:09;;;;;;;1.00;0.40;;;;;;;9.28;100.00;97573.34;5004389;28;20033;-75
2021/05/19 05:26:35;;;;;;;2.63;0.43;;;;;;;9.14;98.50;97579.56;5020219;28;20018;-78
2021/05/19 05:29:00;;;;;;;0.63;0.30;;;;;;;9.22;99.74;97575.34;5019003;28;20029;-77
2021/05/19 05:31:26;;;;;;;0.35;0.30;;;;;;;9.22;98.42;97580.78;5020564;28;20056;-74
2021/05/19 05:33:51;;;;;;;0.93;0.30;;;;;;;9.31;98.78;97589.94;5015188;28;20541;-75
2021/05/19 05:36:17;;;;;;;1.42;0.73;;;;;;;9.17;97.16;97580.88;5023409;28;20646;-75
2021/05/19 05:38:43;;;;;;;2.35;0.45;;;;;;;9.28;97.71;97584.25;5001759;28;20403;-75
2021/05/19 05:41:09;;;;;;;5.78;0.88;;;;;;;9.18;97.93;97587.94;5017487;28;20029;-76
2021/05/19 05:43:34;;;;;;;4.00;1.20;;;;;;;9.16;98.57;97581.97;5019394;28;20026;-75
2021/05/19 05:46:00;;;;;;;0.70;0.43;;;;;;;9.19;98.41;97595.03;5019437;28;20377;-76
2021/05/19 05:48:25;;;;;;;0.22;0.20;;;;;;;9.20;98.65;97591.19;5020596;28;20021;-76
2021/05/19 05:50:50;;;;;;;2.95;0.30;;;;;;;9.09;98.33;97592.44;4973709;28;20129;-76
2021/05/19 05:53:16;;;;;;;0.77;0.40;;;;;;;9.16;99.70;97584.72;4991547;28;20072;-77
2021/05/19 05:55:41;;;;;;;1.08;0.45;;;;;;;9.19;96.77;97591.47;4989947;28;20383;-76
2021/05/19 05:58:07;;;;;;;1.25;0.40;;;;;;;9.28;98.13;97595.16;4990056;28;20105;-75
2021/05/19 06:00:32;;;;;;;1.50;1.30;;;;;;;9.25;96.38;97598.50;4990320;28;20073;-74
2021/05/19 06:02:57;;;;;;;0.35;0.30;;;;;;;9.31;96.57;97600.84;4990134;28;20050;-75
2021/05/19 06:05:24;;;;;;;4.63;1.00;;;;;;;9.32;98.62;97604.41;4991478;28;20046;-76
2021/05/19 06:07:49;;;;;;;1.92;0.50;;;;;;;9.26;97.38;97590.03;4991420;28;20030;-77
2021/05/19 06:10:15;;;;;;;0.40;0.35;;;;;;;9.32;99.85;97598.94;4989820;28;20030;-75
2021/05/19 06:12:40;;;;;;;0.40;0.40;;;;;;;9.34;100.00;97605.72;4992852;28;20037;-75
2021/05/19 06:15:10;;;;;;;0.93;0.60;;;;;;;9.50;100.00;97606.28;4995535;28;20038;-77
2021/05/19 06:17:35;;;;;;;1.45;0.50;;;;;;;9.37;98.62;97607.84;4991402;28;20037;-75
2021/05/19 06:20:00;;;;;;;1.35;0.60;;;;;;;9.38;100.00;97604.03;4989931;28;20034;-75
2021/05/19 06:22:26;;;;;;;3.33;0.77;;;;;;;9.39;100.00;97604.84;4989676;28;20117;-76
2021/05/19 06:24:51;;;;;;;1.55;0.52;;;;;;;9.47;100.00;97601.44;4973204;28;20022;-75
2021/05/19 06:27:17;;;;;;;2.72;0.60;;;;;;;9.43;99.91;97595.75;4991009;28;20776;-75
2021/05/19 06:29:42;;;;;;;0.75;0.50;;;;;;;9.34;97.31;97602.16;4991007;28;20038;-75
2021/05/19 06:32:08;;;;;;;0.63;0.60;;;;;;;9.33;96.70;97606.84;4994421;28;20044;-75
2021/05/19 06:34:35;;;;;;;1.38;0.80;;;;;;;9.42;96.47;97602.34;4995030;28;20026;-75
2021/05/19 06:37:01;;;;;;;0.28;0.25;;;;;;;9.56;96.85;97602.38;4994913;28;20541;-75
2021/05/19 06:39:27;;;;;;;1.70;0.80;;;;;;;9.53;98.07;97605.69;4994660;28;20030;-75
2021/05/19 06:41:52;;;;;;;1.10;0.90;;;;;;;9.49;96.55;97599.22;4994823;28;20041;-75
2021/05/19 06:44:19;;;;;;;0.47;0.43;;;;;;;9.52;96.36;97599.41;4994641;28;20034;-75
2021/05/19 06:46:46;;;;;;;1.10;0.60;;;;;;;9.47;96.39;97602.25;4994877;28;20048;-75
2021/05/19 06:49:12;;;;;;;0.52;0.50;;;;;;;9.39;97.08;97605.66;4993552;28;20030;-75
2021/05/19 06:51:38;;;;;;;0.43;0.30;;;;;;;9.47;95.89;97606.88;4993197;28;20034;-75
2021/05/19 06:54:05;;;;;;;2.72;0.98;;;;;;;9.35;97.44;97609.25;4993328;28;20850;-77
2021/05/19 06:56:31;;;;;;;0.68;0.50;;;;;;;9.28;96.96;97604.16;4993181;28;20475;-76
2021/05/19 06:59:00;;;;;;;0.55;0.35;;;;;;;9.29;97.38;97605.81;4977174;28;20030;-75
2021/05/19 07:01:26;;;;;;;2.38;0.60;;;;;;;9.24;96.26;97603.13;4995102;28;20038;-75
2021/05/19 07:03:51;;;;;;;0.68;0.45;;;;;;;9.26;97.90;97605.56;4994448;28;20046;-75
2021/05/19 07:06:20;;;;;;;1.75;0.95;;;;;;;9.28;97.57;97604.16;4977032;28;20033;-75
2021/05/19 07:08:45;;;;;;;2.25;0.38;;;;;;;9.32;96.17;97607.94;4977196;28;20110;-75
2021/05/19 07:11:11;;;;;;;0.40;0.38;;;;;;;9.19;97.10;97616.03;4997047;28;20094;-77
2021/05/19 07:13:36;;;;;;;0.65;0.50;;;;;;;9.28;97.34;97614.28;4998323;28;20061;-76
2021/05/19 07:16:02;;;;;;;1.33;0.63;;;;;;;9.34;99.10;97608.44;4994577;28;20709;-75
2021/05/19 07:18:28;;;;;;;1.15;1.00;;;;;;;9.23;96.83;97608.91;4994258;28;20031;-75
2021/05/19 07:20:54;;;;;;;2.13;1.20;;;;;;;9.18;97.21;97612.50;4994272;28;20038;-75
2021/05/19 07:23:20;;;;;;;1.60;0.63;;;;;;;9.07;96.61;97608.31;4994054;28;20023;-76
2021/05/19 07:25:46;;;;;;;1.08;0.50;;;;;;;9.14;99.17;97608.75;4994153;28;20530;-75
2021/05/19 07:28:11;;;;;;;0.65;0.50;;;;;;;9.12;99.22;97605.50;4994244;28;20037;-75
2021/05/19 07:30:37;;;;;;;0.95;0.68;;;;;;;9.35;100.00;97604.63;4994101;28;20104;-75
2021/05/19 07:33:05;;;;;;;2.67;0.47;;;;;;;8.96;94.94;97601.34;4994517;28;20435;-75
2021/05/19 07:35:31;;;;;;;0.50;0.50;;;;;;;9.14;97.30;97608.75;4994144;28;20080;-75
2021/05/19 07:37:56;;;;;;;0.93;0.77;;;;;;;9.23;97.94;97606.97;4993168;28;20026;-77
2021/05/19 07:40:23;;;;;;;1.08;0.32;;;;;;;9.24;94.42;97614.03;4994192;28;20029;-74
2021/05/19 07:42:49;;;;;;;1.30;0.52;;;;;;;9.18;95.77;97611.72;4993228;28;20117;-75
2021/05/19 07:45:15;;;;;;;1.38;0.88;;;;;;;9.36;96.42;97611.72;4993983;28;20049;-75
2021/05/19 07:47:40;;;;;;;1.42;0.80;;;;;;;9.24;94.50;97607.81;4993771;28;20068;-75
2021/05/19 07:50:07;;;;;;;2.70;1.02;;;;;;;9.20;95.13;97613.03;4993595;28;20022;-75
2021/05/19 07:52:33;;;;;;;0.60;0.57;;;;;;;9.27;94.56;97618.91;4993558;28;20395;-75
2021/05/19 07:54:58;;;;;;;0.90;0.82;;;;;;;9.37;93.94;97612.50;4993680;28;20030;-74
2021/05/19 07:57:39;;;;;;;0.85;0.30;;;;;;;9.41;93.71;97613.53;4993538;28;20083;-75
2021/05/19 08:00:25;;;;;;;1.20;0.68;;;;;;;9.26;94.29;97611.84;4993418;28;20034;-75
2021/05/19 08:02:51;;;;;;;0.93;0.35;;;;;;;9.17;90.81;97616.34;4993781;28;20054;-75
2021/05/19 08:05:16;;;;;;;0.82;0.50;;;;;;;9.10;92.13;97614.00;4993309;28;20035;-74
2021/05/19 08:07:41;;;;;;;0.45;0.30;;;;;;;9.20;93.54;97623.94;4993265;28;20022;-75
2021/05/19 08:10:07;;;;;;;0.43;0.38;;;;;;;9.18;92.81;97617.94;4993269;28;20030;-75
2021/05/19 08:12:33;;;;;;;1.42;1.02;;;;;;;9.23;92.68;97623.34;4993317;28;20117;-75
2021/05/19 08:14:59;;;;;;;1.35;0.73;;;;;;;9.32;93.59;97621.59;4992873;28;20050;-75
2021/05/19 08:17:25;;;;;;;0.40;0.40;;;;;;;9.21;92.53;97625.56;4992772;28;20061;-76
2021/05/19 08:19:51;;;;;;;1.02;0.60;;;;;;;8.96;93.07;97626.72;4993473;28;20030;-75
2021/05/19 08:22:16;;;;;;;0.32;0.30;;;;;;;9.00;93.55;97618.75;4997000;28;20030;-75
2021/05/19 08:24:43;;;;;;;0.40;0.40;;;;;;;9.12;93.82;97627.31;4996505;28;20046;-77
2021/05/19 08:27:09;;;;;;;0.68;0.55;;;;;;;9.02;95.03;97628.25;4992295;28;20018;-76
2021/05/19 08:29:34;;;;;;;0.40;0.38;;;;;;;8.97;93.25;97630.25;4993277;28;20037;-75
2021/05/19 08:32:00;;;;;;;1.02;0.82;;;;;;;8.87;93.33;97636.66;4993256;28;20494;-75
2021/05/19 08:34:26;;;;;;;2.08;0.85;;;;;;;8.76;95.11;97631.63;4975454;28;20030;-75
2021/05/19 08:36:51;;;;;;;1.58;0.50;;;;;;;8.85;96.69;97646.22;4992852;28;20037;-75
2021/05/19 08:39:19;;;;;;;17.17;1.73;;;;;;;8.95;97.55;97641.47;4992785;28;20771;-76
2021/05/19 08:41:49;;;;;;;0.82;0.57;;;;;;;8.90;95.88;97646.97;4975517;28;20027;-75
2021/05/19 08:44:16;;;;;;;0.32;0.20;;;;;;;8.84;92.86;97648.16;4992490;28;20368;-75
2021/05/19 08:46:46;;;;;;;0.98;0.50;;;;;;;8.87;93.61;97646.75;4992251;28;20491;-75
2021/05/19 08:49:12;;;;;;;1.38;0.95;;;;;;;8.76;94.00;97646.06;4992591;28;20033;-75
2021/05/19 08:51:39;;;;;;;0.75;0.52;;;;;;;8.79;94.70;97650.94;4991133;28;20088;-75
2021/05/19 08:54:07;;;;;;;2.25;0.60;;;;;;;8.79;95.17;97655.59;4991799;28;20037;-76
2021/05/19 08:56:36;;;;;;;1.23;0.73;;;;;;;8.96;96.47;97651.25;4992771;28;20022;-77
2021/05/19 08:59:01;;;;;;;0.73;0.55;;;;;;;8.99;95.37;97661.59;4991448;28;20058;-76
2021/05/19 09:01:36;;;;;;;1.02;0.68;;;;;;;8.85;95.25;97655.22;4992627;28;20053;-75
2021/05/19 09:04:06;;;;;;;2.55;1.15;;;;;;;8.93;95.46;97662.75;4992266;28;20050;-75
2021/05/19 09:06:31;;;;;;;1.10;0.73;;;;;;;9.03;95.80;97667.28;4974772;28;20509;-75
2021/05/19 09:08:57;;;;;;;2.28;0.93;;;;;;;8.91;95.70;97664.16;4990821;28;20076;-75
2021/05/19 09:11:22;;;;;;;0.95;0.63;;;;;;;8.89;92.68;97677.28;4992156;28;20034;-75
2021/05/19 09:13:47;;;;;;;1.45;0.57;;;;;;;8.79;94.26;97666.50;4974453;28;20352;-77
2021/05/19 09:16:26;;;;;;;0.60;0.60;;;;;;;8.76;94.21;97673.34;4992416;28;20030;-75
2021/05/19 09:18:56;;;;;;;0.73;0.70;;;;;;;8.75;95.12;97684.53;4991989;28;20387;-75
2021/05/19 09:21:43;;;;;;;1.95;0.73;;;;;;;8.60;93.88;97691.78;4991943;28;20060;-74
2021/05/19 09:24:13;;;;;;;;;;;;;;;8.55;92.86;97689.09;4992233;28;20037;-74
2021/05/19 09:26:58;;;;;;;1.17;0.63;;;;;;;8.57;94.40;97681.47;4992208;28;19917;-75
2021/05/19 09:29:26;;;;;;;1.20;0.93;;;;;;;8.53;94.96;97685.03;4990739;28;20038;-75
2021/05/19 09:32:01;;;;;;;1.55;0.98;;;;;;;8.56;96.28;97689.91;4991870;28;20053;-76
2021/05/19 09:34:31;;;;;;;1.35;0.65;;;;;;;8.58;97.42;97685.78;4991492;28;20049;-76
2021/05/19 09:37:25;;;;;;;1.13;0.88;;;;;;;8.51;96.55;97682.63;4991978;28;20033;-75
2021/05/19 09:40:19;;;;;;;1.55;0.70;;;;;;;8.59;96.71;97686.59;4990299;28;20035;-75
2021/05/19 09:42:48;;;;;;;0.75;0.65;;;;;;;8.64;96.74;97680.31;4970702;28;20035;-75
2021/05/19 09:45:24;;;;;;;1.92;0.68;;;;;;;8.64;96.76;97681.13;4990599;28;20386;-76
2021/05/19 09:47:51;;;;;;;1.38;0.52;;;;;;;8.74;98.84;97682.91;4991440;28;20022;-75
2021/05/19 09:50:19;;;;;;;0.60;0.50;;;;;;;8.98;100.00;97686.44;4990346;28;20495;-76
2021/05/19 09:53:05;;;;;;;1.63;1.52;;;;;;;8.94;97.33;97690.84;4992795;28;20042;-74
2021/05/19 09:55:31;;;;;;;;;;;;;;;9.13;97.19;97688.97;4992814;28;20042;-74
2021/05/19 09:57:57;;;;;;;2.03;0.70;;;;;;;9.20;97.49;97686.72;4991482;28;20362;-75
2021/05/19 10:00:25;;;;;;;0.93;0.60;;;;;;;9.10;98.70;97695.03;4991399;28;20037;-75
2021/05/19 10:02:52;;;;;;;1.52;0.60;;;;;;;8.95;98.10;97685.13;4991942;28;20074;-77
2021/05/19 10:05:22;;;;;;;0.70;0.35;;;;;;;9.18;98.81;97691.63;4993157;28;20054;-75
2021/05/19 10:07:47;;;;;;;1.63;1.52;;;;;;;9.54;98.30;97686.50;4995648;28;20517;-74
2021/05/19 10:10:13;;;;;;;1.02;0.93;;;;;;;9.40;98.16;97689.16;4995424;28;20030;-75
2021/05/19 10:12:40;;;;;;;1.08;0.63;;;;;;;9.60;98.56;97694.34;4995257;28;20030;-75
2021/05/19 10:15:14;;;;;;;0.82;0.68;;;;;;;9.42;98.17;97694.31;4995639;28;20086;-74
2021/05/19 10:17:47;;;;;;;0.60;0.60;;;;;;;9.27;98.98;97689.88;4995253;28;20034;-76
2021/05/19 10:20:16;;;;;;;1.10;1.00;;;;;;;9.46;99.27;97692.66;4995032;28;20027;-75
2021/05/19 10:22:45;;;;;;;3.03;1.98;;;;;;;9.40;99.67;97685.59;4995296;28;20074;-76
2021/05/19 10:25:32;;;;;;;0.60;0.60;;;;;;;9.41;100.00;97688.06;4995173;28;20030;-75
2021/05/19 10:28:00;;;;;;;1.80;1.00;;;;;;;9.48;96.93;97699.44;4995076;28;20037;-75
2021/05/19 10:30:57;;;;;;;1.33;0.88;;;;;;;9.30;99.63;97692.03;4994914;28;20125;-75
2021/05/19 10:33:29;;;;;;;2.95;0.70;;;;;;;9.25;98.64;97696.72;4995557;28;20045;-74
2021/05/19 10:35:55;;;;;;;1.05;0.82;;;;;;;9.27;100.00;97689.88;4995009;28;20037;-75
2021/05/19 10:38:33;;;;;;;1.63;0.77;;;;;;;9.29;100.00;97687.69;4994549;28;20050;-75
2021/05/19 10:41:00;;;;;;;1.10;0.63;;;;;;;9.34;100.00;97679.41;4994772;28;20081;-76
2021/05/19 10:43:44;;;;;;;0.82;0.75;;;;;;;9.43;99.99;97683.09;4994777;28;20030;-75
2021/05/19 10:46:12;;;;;;;1.00;0.60;;;;;;;9.43;100.00;97671.41;4994715;28;20041;-75
2021/05/19 10:48:38;;;;;;;1.15;1.02;;;;;;;9.40;98.65;97680.13;4977768;28;20046;-76
2021/05/19 10:51:43;;;;;;;1.48;1.02;;;;;;;9.64;98.36;97675.44;4994595;28;20550;-74
2021/05/19 11:00:15;;;;;;;1.85;1.02;;;;;;;9.58;96.70;97677.44;4994151;28;20502;-75
2021/05/19 11:03:04;;;;;;;0.75;0.75;;;;;;;9.80;97.50;97674.09;4994916;28;20096;-76
2021/05/19 11:05:37;;;;;;;1.35;0.57;;;;;;;10.00;93.98;97673.75;4982268;28;20121;-75
2021/05/19 11:08:11;;;;;;;2.67;0.95;;;;;;;9.85;95.04;97675.94;4994968;28;20406;-75
2021/05/19 11:10:49;;;;;;;1.00;0.63;;;;;;;9.79;93.05;97669.75;4996016;28;20036;-76
2021/05/19 11:13:19;;;;;;;0.93;0.93;;;;;;;9.46;95.92;97670.81;4995093;28;20029;-75
2021/05/19 11:21:04;;;;;;;1.73;0.90;;;;;;;9.90;96.66;97678.59;4994288;28;20027;-75
2021/05/19 11:23:30;;;;;;;2.50;0.98;;;;;;;9.73;94.05;97670.13;4994252;28;20028;-75
2021/05/19 11:26:16;;;;;;;1.10;0.40;;;;;;;9.46;92.68;97668.84;4992426;28;20034;-74
2021/05/19 11:28:43;;;;;;;2.00;1.80;;;;;;;9.50;95.29;97660.91;4994497;28;20031;-75
2021/05/19 11:31:16;;;;;;;1.75;1.20;;;;;;;9.58;94.68;97666.53;4993724;28;20034;-75
2021/05/19 11:33:51;;;;;;;1.20;1.08;;;;;;;9.60;94.05;97668.94;4992829;28;20092;-75
2021/05/19 11:36:37;;;;;;;1.73;0.77;;;;;;;9.47;94.66;97661.47;4993814;28;20065;-77
2021/05/19 11:39:21;;;;;;;0.60;0.60;;;;;;;9.59;94.52;97665.41;4993775;28;20029;-75
2021/05/19 11:41:46;;;;;;;0.60;0.57;;;;;;;9.71;93.90;97662.19;4993321;28;20069;-75
2021/05/19 11:44:28;;;;;;;0.57;0.55;;;;;;;9.89;94.99;97658.66;4976139;28;20019;-76
2021/05/19 11:46:54;;;;;;;1.55;0.85;;;;;;;9.91;94.73;97666.53;4993493;28;20382;-76
2021/05/19 11:49:19;;;;;;;1.65;0.93;;;;;;;10.07;94.98;97665.19;4993715;28;20029;-77
2021/05/19 11:51:45;;;;;;;1.00;0.75;;;;;;;9.69;94.04;97659.78;4993329;28;20077;-75
2021/05/19 11:54:10;;;;;;;0.60;0.57;;;;;;;9.96;93.30;97664.53;4975951;28;20446;-75
2021/05/19 11:56:45;;;;;;;0.43;0.40;;;;;;;9.92;94.34;97652.59;4993256;28;20465;-75